Time;durP1;ratioP1;P1;durP2;ratioP2;P2;SDS_P1;SDS_P2;PMS_P1;PMS_P2;Temp;Humidity;BMP_temperature;BMP_pressure;BME280_temperature;BME280_humidity;BME280_pressure;Samples;Min_cycle;Max_cycle;Signal;HPM_P1;HPM_P2
2022/01/03 00:01:00;;;;;;;2.93;1.90;;;;;;;11.27;62.51;97093.91;5110665;28;20532;-76
2022/01/03 00:03:26;;;;;;;3.43;2.03;;;;;;;11.20;62.80;97089.28;5108176;28;20209;-76
2022/01/03 00:05:52;;;;;;;1.90;1.80;;;;;;;11.16;62.87;97091.38;5109671;28;20205;-73
2022/01/03 00:08:19;;;;;;;2.07;1.73;;;;;;;11.21;63.10;97098.91;5108627;28;20208;-77
2022/01/03 00:10:46;;;;;;;1.87;1.60;;;;;;;11.16;63.44;97106.44;5115863;28;20205;-75
2022/01/03 00:13:14;;;;;;;2.40;1.80;;;;;;;11.23;63.78;97112.88;5115030;28;20310;-75
2022/01/03 00:15:40;;;;;;;4.33;1.90;;;;;;;11.16;63.39;97111.72;5117498;28;20232;-75
2022/01/03 00:18:07;;;;;;;2.53;2.33;;;;;;;11.09;63.88;97086.78;5120456;28;20238;-75
2022/01/03 00:20:33;;;;;;;2.13;1.93;;;;;;;11.00;64.34;97080.47;5108358;28;20201;-78
2022/01/03 00:23:03;;;;;;;2.33;1.90;;;;;;;10.90;64.85;97077.81;5108979;28;20202;-76
2022/01/03 00:25:30;;;;;;;1.90;1.70;;;;;;;10.84;64.99;97080.97;5103576;28;20204;-77
2022/01/03 00:28:01;;;;;;;5.00;2.10;;;;;;;10.76;65.80;97080.81;5102624;28;20224;-77
2022/01/03 00:30:28;;;;;;;2.57;1.73;;;;;;;10.85;65.88;97081.81;5116194;28;20205;-76
2022/01/03 00:32:55;;;;;;;3.80;2.00;;;;;;;10.88;65.79;97085.03;5106427;28;20206;-77
2022/01/03 00:35:22;;;;;;;2.90;1.63;;;;;;;11.04;65.45;97081.88;5107521;28;20252;-75
2022/01/03 00:37:49;;;;;;;3.40;1.50;;;;;;;11.12;65.06;97094.44;5108953;28;20296;-75
2022/01/03 00:40:20;;;;;;;3.83;1.80;;;;;;;11.09;65.36;97087.59;5096000;28;20205;-77
2022/01/03 00:42:47;;;;;;;2.53;2.00;;;;;;;11.14;65.19;97087.19;5096122;28;20201;-77
2022/01/03 00:45:14;;;;;;;2.10;1.53;;;;;;;11.13;65.32;97085.50;5104798;28;20224;-77
2022/01/03 00:47:42;;;;;;;3.07;2.00;;;;;;;11.10;65.63;97080.50;5116070;28;20245;-78
2022/01/03 00:50:11;;;;;;;4.57;2.20;;;;;;;11.02;65.96;97085.63;5108073;28;20204;-78
2022/01/03 00:52:38;;;;;;;4.03;1.83;;;;;;;11.04;66.21;97088.97;5112724;28;20574;-77
2022/01/03 00:55:06;;;;;;;3.27;2.07;;;;;;;11.01;66.19;97081.31;5107332;28;20202;-77
2022/01/03 00:57:45;;;;;;;1.93;1.70;;;;;;;10.98;66.35;97080.59;5094887;28;20197;-77
2022/01/03 01:00:12;;;;;;;2.20;2.00;;;;;;;11.05;66.25;97085.38;5094824;28;20202;-76
2022/01/03 01:02:51;;;;;;;2.67;1.70;;;;;;;11.00;66.44;97091.06;5102368;28;20296;-80
2022/01/03 01:05:19;;;;;;;3.80;1.63;;;;;;;11.01;66.37;97098.03;5093172;28;20225;-78
2022/01/03 01:07:48;;;;;;;2.67;1.63;;;;;;;10.98;66.57;97091.19;5095342;28;20290;-76
2022/01/03 01:10:15;;;;;;;3.10;1.60;;;;;;;10.93;67.00;97095.22;5100171;28;20202;-78
2022/01/03 01:12:46;;;;;;;2.87;1.47;;;;;;;10.89;67.18;97086.72;5096887;28;20616;-74
2022/01/03 01:15:14;;;;;;;2.07;1.57;;;;;;;10.88;67.09;97103.53;5100409;28;20193;-78
2022/01/03 01:17:41;;;;;;;1.87;1.73;;;;;;;10.83;67.66;97113.72;5102072;28;20198;-77
2022/01/03 01:20:11;;;;;;;1.67;1.50;;;;;;;10.83;67.75;97111.06;5099216;28;20197;-72
2022/01/03 01:22:38;;;;;;;1.97;1.70;;;;;;;10.85;67.65;97113.56;5096018;28;20595;-71
2022/01/03 01:27:52;;;;;;;4.30;1.70;;;;;;;10.78;68.01;97102.66;5098619;28;20323;-71
2022/01/03 01:30:21;;;;;;;2.27;1.67;;;;;;;10.81;68.00;97110.34;5100359;28;20210;-71
2022/01/03 01:32:49;;;;;;;3.17;1.77;;;;;;;10.83;67.87;97105.78;5098033;28;20197;-71
2022/01/03 01:35:19;;;;;;;1.93;1.60;;;;;;;10.78;68.23;97107.97;5097091;28;20205;-72
2022/01/03 01:37:47;;;;;;;3.43;1.87;;;;;;;10.78;68.24;97102.66;5098448;28;20205;-69
2022/01/03 01:40:14;;;;;;;3.13;1.60;;;;;;;10.70;68.53;97089.25;5097899;28;20197;-70
2022/01/03 01:42:45;;;;;;;2.13;1.50;;;;;;;10.73;68.76;97086.38;5098390;28;20193;-70
2022/01/03 01:45:11;;;;;;;2.03;1.60;;;;;;;10.77;68.39;97084.31;5096005;28;20203;-70
2022/01/03 01:47:39;;;;;;;3.37;1.73;;;;;;;10.73;68.63;97093.47;5100452;28;20230;-73
2022/01/03 01:50:07;;;;;;;2.37;1.80;;;;;;;10.71;68.82;97090.94;5101006;28;20201;-72
2022/01/03 01:52:38;;;;;;;3.10;1.80;;;;;;;10.68;68.99;97079.78;5101436;28;20201;-70
2022/01/03 01:55:07;;;;;;;2.90;1.77;;;;;;;10.67;68.97;97084.25;5102053;28;20208;-70
2022/01/03 01:57:41;;;;;;;2.67;1.87;;;;;;;10.65;69.37;97085.34;5103385;28;20652;-71
2022/01/03 02:00:10;;;;;;;2.77;1.70;;;;;;;10.63;69.40;97090.75;5107268;28;20190;-72
2022/01/03 02:02:38;;;;;;;3.33;1.87;;;;;;;10.62;69.51;97075.88;5110129;28;20265;-71
2022/01/03 02:05:19;;;;;;;2.47;1.90;;;;;;;10.67;69.45;97064.88;5108451;28;20220;-72
2022/01/03 02:08:03;;;;;;;2.40;1.83;;;;;;;10.64;69.33;97055.41;5108067;28;20185;-72
2022/01/03 02:10:36;;;;;;;1.87;1.70;;;;;;;10.64;69.73;97068.66;5124395;28;20234;-71
2022/01/03 02:13:03;;;;;;;2.10;1.90;;;;;;;10.60;69.98;97083.09;5121594;28;20185;-71
2022/01/03 02:15:31;;;;;;;2.67;1.70;;;;;;;10.60;70.30;97106.91;5099747;28;20194;-70
2022/01/03 02:17:57;;;;;;;3.00;1.73;;;;;;;10.62;70.19;97104.97;5097190;28;20194;-68
2022/01/03 02:20:27;;;;;;;2.80;1.90;;;;;;;10.61;70.31;97100.66;5116591;28;20213;-71
2022/01/03 02:22:54;;;;;;;1.67;1.20;;;;;;;10.62;70.55;97102.34;5115012;28;20309;-70
2022/01/03 02:25:22;;;;;;;2.37;1.67;;;;;;;10.53;70.92;97102.25;5118878;28;20190;-71
2022/01/03 02:27:52;;;;;;;5.00;1.80;;;;;;;10.55;70.78;97103.84;5122019;28;20220;-71
2022/01/03 02:30:21;;;;;;;3.47;1.70;;;;;;;10.52;70.99;97096.16;5118636;28;20554;-71
2022/01/03 02:32:48;;;;;;;2.13;1.47;;;;;;;10.59;70.54;97094.66;5109211;28;20729;-71
2022/01/03 02:35:15;;;;;;;1.77;1.53;;;;;;;10.58;70.89;97090.34;5114979;28;20216;-72
2022/01/03 02:37:44;;;;;;;1.50;1.23;;;;;;;10.57;71.09;97078.06;5111385;28;20221;-71
2022/01/03 02:40:11;;;;;;;4.37;1.60;;;;;;;10.64;70.70;97071.28;5118230;28;20213;-71
2022/01/03 02:42:38;;;;;;;4.07;1.60;;;;;;;10.65;70.66;97072.97;5118144;28;20301;-68
2022/01/03 02:45:07;;;;;;;2.33;1.27;;;;;;;10.65;70.60;97080.06;5117360;28;20213;-71
2022/01/03 02:47:34;;;;;;;3.40;1.67;;;;;;;10.62;70.93;97083.81;5091771;28;20241;-71
2022/01/03 02:50:01;;;;;;;2.77;1.70;;;;;;;10.66;70.72;97073.81;5110139;28;20208;-72
2022/01/03 02:52:28;;;;;;;3.00;1.80;;;;;;;10.64;70.84;97063.34;5103928;28;20209;-70
2022/01/03 02:54:56;;;;;;;2.40;1.20;;;;;;;10.71;70.52;97069.78;5117568;28;20205;-71
2022/01/03 02:57:23;;;;;;;1.50;1.27;;;;;;;10.75;70.64;97075.66;5112763;28;20217;-72
2022/01/03 02:59:56;;;;;;;1.90;1.20;;;;;;;10.72;70.57;97082.06;5117499;28;20205;-71
2022/01/03 03:02:24;;;;;;;3.03;1.40;;;;;;;10.66;71.23;97072.00;5117526;28;20513;-69
2022/01/03 03:04:54;;;;;;;3.43;2.03;;;;;;;10.64;70.84;97063.34;5107955;28;20205;-71
2022/01/03 03:07:22;;;;;;;3.17;1.77;;;;;;;10.54;71.85;97059.84;5101984;28;20205;-70
2022/01/03 03:09:49;;;;;;;4.03;1.37;;;;;;;10.59;71.22;97067.38;5117608;28;20212;-70
2022/01/03 03:12:17;;;;;;;3.40;1.70;;;;;;;10.57;71.34;97077.22;5107794;28;20209;-71
2022/01/03 03:14:44;;;;;;;4.47;1.67;;;;;;;10.60;71.21;97064.59;5109768;28;20212;-71
2022/01/03 03:17:10;;;;;;;3.93;1.73;;;;;;;10.57;71.52;97071.94;5105695;28;20224;-70
2022/01/03 03:19:52;;;;;;;3.07;1.33;;;;;;;10.61;71.47;97074.19;5104239;28;20208;-72
2022/01/03 03:22:19;;;;;;;3.77;1.53;;;;;;;10.61;71.17;97087.44;5091950;28;20200;-72
2022/01/03 03:24:46;;;;;;;2.53;1.47;;;;;;;10.63;71.28;97089.97;5117005;28;20213;-73
2022/01/03 03:27:13;;;;;;;4.70;1.47;;;;;;;10.65;71.41;97086.19;5107919;28;20197;-72
2022/01/03 03:29:45;;;;;;;3.13;1.47;;;;;;;10.66;71.43;97098.47;5116250;28;20544;-73
2022/01/03 03:32:12;;;;;;;4.03;1.60;;;;;;;10.70;71.39;97089.25;5101288;28;20198;-71
2022/01/03 03:34:38;;;;;;;3.40;1.70;;;;;;;10.66;71.43;97087.88;5112454;28;20240;-72
2022/01/03 03:37:05;;;;;;;2.47;1.53;;;;;;;10.65;71.36;97086.19;5108401;28;20675;-72
2022/01/03 03:39:33;;;;;;;2.30;1.27;;;;;;;10.69;71.12;97092.91;5109887;28;20201;-71
2022/01/03 03:42:00;;;;;;;2.50;1.40;;;;;;;10.68;71.36;97091.22;5116798;28;20244;-72
2022/01/03 03:44:27;;;;;;;2.47;1.20;;;;;;;10.61;71.45;97074.19;5113988;28;20213;-72
2022/01/03 03:46:55;;;;;;;2.90;1.53;;;;;;;10.63;71.38;97077.53;5105497;28;20664;-71
2022/01/03 03:49:21;;;;;;;2.67;1.43;;;;;;;10.65;71.41;97080.91;5116665;28;20212;-69
2022/01/03 03:51:48;;;;;;;4.33;1.97;;;;;;;10.59;71.41;97081.44;5117005;28;20220;-68
2022/01/03 03:54:14;;;;;;;3.50;1.60;;;;;;;10.54;71.79;97075.69;5116296;28;20592;-70
2022/01/03 03:56:41;;;;;;;3.10;1.23;;;;;;;10.48;72.03;97068.31;5105484;28;20229;-70
2022/01/03 03:59:07;;;;;;;4.47;1.50;;;;;;;10.37;72.63;97071.03;5112984;28;20220;-71
2022/01/03 04:01:33;;;;;;;4.27;1.30;;;;;;;10.33;72.76;97074.91;5106528;28;20206;-71
2022/01/03 04:04:01;;;;;;;2.10;1.47;;;;;;;10.27;73.08;97070.16;5098865;28;20624;-72
2022/01/03 04:06:28;;;;;;;4.50;1.50;;;;;;;10.21;73.28;97070.66;5104995;28;20204;-72
2022/01/03 04:08:54;;;;;;;4.13;1.50;;;;;;;10.16;73.78;97071.06;5100577;28;20220;-72
2022/01/03 04:11:21;;;;;;;2.43;1.40;;;;;;;10.16;73.93;97071.06;5101600;28;20209;-72
2022/01/03 04:13:48;;;;;;;2.53;1.17;;;;;;;10.15;73.78;97061.44;5114510;28;20547;-70
2022/01/03 04:16:15;;;;;;;3.33;1.10;;;;;;;10.14;73.99;97069.47;5112859;28;20220;-72
2022/01/03 04:18:41;;;;;;;2.67;1.27;;;;;;;10.15;74.35;97065.88;5103591;28;20633;-73
2022/01/03 04:21:09;;;;;;;3.07;1.50;;;;;;;10.16;74.02;97070.22;5107268;28;20209;-71
2022/01/03 04:23:36;;;;;;;4.33;1.60;;;;;;;10.15;74.02;97061.44;5134279;28;20189;-70
2022/01/03 04:26:04;;;;;;;2.73;1.30;;;;;;;10.17;73.74;97056.84;5138282;28;20195;-68
2022/01/03 04:28:31;;;;;;;3.23;1.10;;;;;;;10.28;73.04;97062.06;5131647;28;20205;-71
2022/01/03 04:30:57;;;;;;;2.63;1.60;;;;;;;10.30;72.92;97072.53;5104259;28;20201;-72
2022/01/03 04:33:24;;;;;;;2.27;1.50;;;;;;;10.28;73.00;97072.63;5104162;28;20212;-74
2022/01/03 04:35:50;;;;;;;3.27;1.50;;;;;;;10.27;73.07;97065.66;5095067;28;20212;-73
2022/01/03 04:38:19;;;;;;;2.33;1.40;;;;;;;10.27;73.82;97060.38;5099192;28;20661;-72
2022/01/03 04:40:46;;;;;;;4.57;1.30;;;;;;;10.29;72.96;97071.69;5107537;28;20238;-71
2022/01/03 04:43:12;;;;;;;3.13;1.37;;;;;;;10.33;72.71;97075.75;5111430;28;20288;-72
2022/01/03 04:45:39;;;;;;;4.77;1.43;;;;;;;10.38;72.25;97072.72;5115655;28;20220;-71
2022/01/03 04:48:06;;;;;;;3.17;1.40;;;;;;;10.36;72.45;97069.34;5108791;28;20312;-71
2022/01/03 04:50:32;;;;;;;4.53;1.70;;;;;;;10.39;71.72;97066.44;5115409;28;20205;-72
2022/01/03 04:52:59;;;;;;;3.63;1.47;;;;;;;10.33;72.64;97067.81;5114022;28;20216;-72
2022/01/03 04:55:27;;;;;;;5.20;1.50;;;;;;;10.33;73.13;97061.69;5115892;28;20212;-72
2022/01/03 04:57:53;;;;;;;4.73;1.60;;;;;;;10.28;73.07;97062.06;5110952;28;20253;-71
2022/01/03 05:00:20;;;;;;;3.70;1.50;;;;;;;10.24;73.45;97057.16;5103937;28;20267;-73
2022/01/03 05:02:47;;;;;;;3.00;1.30;;;;;;;10.24;74.30;97057.16;5114790;28;20212;-73
2022/01/03 05:05:14;;;;;;;4.87;1.67;;;;;;;10.30;72.68;97059.31;5114768;28;20220;-72
2022/01/03 05:07:40;;;;;;;5.07;1.63;;;;;;;10.34;72.28;97066.00;5095122;28;20610;-71
2022/01/03 05:10:07;;;;;;;3.97;1.37;;;;;;;10.38;72.04;97065.59;5105549;28;20288;-71
2022/01/03 05:12:35;;;;;;;2.80;1.27;;;;;;;10.41;72.08;97069.81;5103660;28;20220;-73
2022/01/03 05:15:02;;;;;;;3.83;1.27;;;;;;;10.37;72.53;97066.59;5100787;28;20216;-71
2022/01/03 05:17:31;;;;;;;1.83;1.20;;;;;;;10.34;72.16;97066.84;5100985;28;20233;-70
2022/01/03 05:19:58;;;;;;;1.97;1.33;;;;;;;10.40;71.42;97066.31;5102237;28;20202;-71
2022/01/03 05:22:24;;;;;;;3.47;1.57;;;;;;;10.41;71.78;97069.81;5116119;28;20208;-68
2022/01/03 05:24:51;;;;;;;3.20;1.50;;;;;;;10.51;70.95;97059.25;5115011;28;20205;-72
2022/01/03 05:27:17;;;;;;;3.30;1.47;;;;;;;10.56;70.66;97060.53;5111569;28;20214;-72
2022/01/03 05:29:46;;;;;;;3.07;1.30;;;;;;;10.51;71.31;97068.03;5111503;28;20243;-70
2022/01/03 05:32:12;;;;;;;5.27;1.70;;;;;;;10.49;71.67;97075.25;5111734;28;20251;-72
2022/01/03 05:34:39;;;;;;;2.70;1.20;;;;;;;10.39;72.31;97071.72;5109446;28;20270;-71
2022/01/03 05:37:05;;;;;;;2.63;1.10;;;;;;;10.38;72.77;97070.88;5108166;28;20315;-70
2022/01/03 05:39:32;;;;;;;1.90;1.43;;;;;;;10.27;73.73;97072.78;5115328;28;20201;-72
2022/01/03 05:41:58;;;;;;;3.50;1.33;;;;;;;10.23;72.90;97069.56;5110177;28;20233;-72
2022/01/03 05:44:25;;;;;;;1.40;1.00;;;;;;;10.20;72.72;97067.16;5106741;28;20209;-72
2022/01/03 05:46:53;;;;;;;5.03;1.50;;;;;;;10.22;73.39;97070.53;5110806;28;20236;-72
2022/01/03 05:49:19;;;;;;;4.33;1.70;;;;;;;10.18;74.39;97057.69;5114852;28;20220;-70
2022/01/03 05:51:46;;;;;;;1.90;1.17;;;;;;;10.15;74.27;97045.59;5115324;28;20205;-70
2022/01/03 05:54:12;;;;;;;2.73;1.50;;;;;;;10.13;74.25;97051.94;5115463;28;20397;-70
2022/01/03 05:56:39;;;;;;;5.37;1.73;;;;;;;10.17;73.52;97048.94;5115657;28;20289;-69
2022/01/03 05:59:07;;;;;;;4.63;1.83;;;;;;;10.19;72.02;97046.16;5102487;28;20209;-70
2022/01/03 06:01:34;;;;;;;5.90;1.70;;;;;;;10.19;72.59;97040.88;5115722;28;20205;-71
2022/01/03 06:04:13;;;;;;;3.77;1.40;;;;;;;10.18;72.89;97053.25;5106585;28;20265;-70
2022/01/03 06:09:26;;;;;;;5.37;4.10;;;;;;;10.10;74.41;97054.81;5095361;28;20251;-71
2022/01/03 06:11:53;;;;;;;4.10;2.97;;;;;;;10.12;73.98;97060.84;5107070;28;20531;-71
2022/01/03 06:14:21;;;;;;;2.40;1.23;;;;;;;10.08;73.64;97056.78;5110730;28;20209;-69
2022/01/03 06:16:49;;;;;;;4.83;1.67;;;;;;;10.02;74.52;97040.47;5122397;28;20217;-71
2022/01/03 06:19:17;;;;;;;4.33;2.10;;;;;;;9.99;75.03;97043.38;5124236;28;20208;-71
2022/01/03 06:21:44;;;;;;;1.73;1.20;;;;;;;10.01;74.96;97027.41;5105369;28;20232;-70
2022/01/03 06:24:11;;;;;;;2.73;1.53;;;;;;;9.93;75.74;97028.03;5112868;28;20992;-69
2022/01/03 06:26:41;;;;;;;3.53;1.53;;;;;;;9.89;76.03;97031.06;5118441;28;20212;-69
2022/01/03 06:29:08;;;;;;;4.77;1.60;;;;;;;9.81;76.33;97030.88;5118771;28;20626;-72
2022/01/03 06:31:34;;;;;;;2.10;1.70;;;;;;;9.79;75.67;97023.09;5107009;28;20198;-73
2022/01/03 06:34:01;;;;;;;3.23;1.50;;;;;;;9.79;76.16;97016.97;5108285;28;20208;-72
2022/01/03 06:36:29;;;;;;;1.73;1.20;;;;;;;9.81;75.47;97015.84;5112392;28;20612;-71
2022/01/03 06:38:56;;;;;;;2.60;1.20;;;;;;;9.84;75.03;97026.19;5118335;28;20503;-71
2022/01/03 06:41:23;;;;;;;3.47;1.73;;;;;;;9.82;74.57;97035.19;5100164;28;20221;-70
2022/01/03 06:43:50;;;;;;;2.63;1.53;;;;;;;9.81;74.97;97046.75;5099853;28;20198;-70
2022/01/03 06:46:16;;;;;;;2.50;1.50;;;;;;;9.80;75.08;97047.69;5114335;28;20260;-70
2022/01/03 06:48:43;;;;;;;4.30;1.60;;;;;;;9.90;74.22;97051.25;5118776;28;20205;-71
2022/01/03 06:51:10;;;;;;;5.17;1.60;;;;;;;9.90;73.66;97024.81;5118112;28;20205;-71
2022/01/03 06:53:37;;;;;;;4.57;1.20;;;;;;;9.93;74.16;97017.47;5108406;28;20194;-71
2022/01/03 06:56:04;;;;;;;3.23;1.50;;;;;;;9.96;73.41;97019.84;5115902;28;20205;-70
2022/01/03 06:58:31;;;;;;;5.73;1.77;;;;;;;10.02;73.13;97028.25;5113328;28;20226;-70
2022/01/03 07:00:58;;;;;;;6.17;1.30;;;;;;;10.08;72.90;97038.28;5111745;28;20294;-72
2022/01/03 07:03:24;;;;;;;1.93;1.20;;;;;;;10.11;72.79;97030.94;5097662;28;20202;-70
2022/01/03 07:05:51;;;;;;;3.17;1.40;;;;;;;10.15;72.26;97029.72;5098164;28;20201;-70
2022/01/03 07:08:20;;;;;;;4.50;1.50;;;;;;;10.16;72.00;97027.94;5110490;28;20201;-69
2022/01/03 07:10:48;;;;;;;2.47;1.23;;;;;;;10.19;72.53;97027.66;5107639;28;20221;-71
2022/01/03 07:13:14;;;;;;;4.57;1.60;;;;;;;10.33;71.45;97045.81;5105443;28;20261;-70
2022/01/03 07:21:09;;;;;;;4.80;2.00;;;;;;;10.29;71.78;97032.03;5109425;28;20659;-70
2022/01/03 07:23:36;;;;;;;9.97;2.40;;;;;;;10.31;72.38;97029.22;5113841;28;20197;-69
2022/01/03 07:26:04;;;;;;;2.33;1.30;;;;;;;10.28;71.72;97030.34;5104760;28;20202;-71
2022/01/03 07:28:30;;;;;;;4.00;1.43;;;;;;;10.29;71.89;97036.47;5116543;28;20197;-72
2022/01/03 07:30:57;;;;;;;3.47;1.53;;;;;;;10.35;71.36;97047.34;5113554;28;20201;-71
2022/01/03 07:33:23;;;;;;;4.73;1.30;;;;;;;10.31;71.41;97045.94;5110581;28;20198;-73
2022/01/03 07:35:50;;;;;;;3.27;1.90;;;;;;;10.32;71.25;97044.13;5102375;28;20225;-71
2022/01/03 07:38:16;;;;;;;3.17;1.20;;;;;;;10.30;71.89;97046.09;5116458;28;20243;-73
2022/01/03 07:40:43;;;;;;;3.07;1.23;;;;;;;10.41;70.51;97038.91;5109820;28;20209;-71
2022/01/03 07:43:11;;;;;;;1.50;0.90;;;;;;;10.43;70.48;97046.69;5113942;28;20205;-71
2022/01/03 07:45:37;;;;;;;2.10;1.13;;;;;;;10.46;70.18;97049.06;5097191;28;20206;-72
2022/01/03 07:48:04;;;;;;;3.97;1.50;;;;;;;10.48;70.28;97042.72;5102513;28;20229;-72
2022/01/03 07:50:30;;;;;;;1.50;1.00;;;;;;;10.50;70.61;97045.19;5117097;28;20217;-71
2022/01/03 07:52:58;;;;;;;3.03;1.77;;;;;;;10.47;70.11;97025.16;5104086;28;20205;-70
2022/01/03 07:55:26;;;;;;;4.93;1.30;;;;;;;10.58;70.52;97026.03;5113709;28;20256;-71
2022/01/03 07:57:53;;;;;;;4.10;1.33;;;;;;;10.55;70.13;97031.59;5117907;28;20275;-69
2022/01/03 08:00:21;;;;;;;4.70;2.93;;;;;;;10.62;70.07;97024.78;5116648;28;20221;-70
2022/01/03 08:02:48;;;;;;;2.83;1.87;;;;;;;10.67;70.27;97031.34;5117889;28;20220;-69
2022/01/03 08:05:15;;;;;;;4.07;1.63;;;;;;;10.75;71.00;97030.69;5102896;28;20209;-68
2022/01/03 08:07:43;;;;;;;5.10;1.57;;;;;;;10.73;70.21;97027.34;5097946;28;20205;-70
2022/01/03 08:10:11;;;;;;;3.90;1.70;;;;;;;10.74;71.12;97023.69;5107563;28;20266;-69
2022/01/03 08:12:39;;;;;;;3.90;1.70;;;;;;;10.73;70.48;97014.97;5110640;28;20208;-69
2022/01/03 08:15:06;;;;;;;5.77;2.03;;;;;;;10.65;71.10;97009.50;5127311;28;20202;-69
2022/01/03 08:17:35;;;;;;;4.67;1.83;;;;;;;10.69;70.82;97013.56;5094081;28;20202;-69
2022/01/03 08:20:01;;;;;;;3.97;1.80;;;;;;;10.69;71.12;97034.72;5105643;28;20213;-70
2022/01/03 08:22:28;;;;;;;2.80;1.67;;;;;;;10.71;71.28;97018.69;5105810;28;20205;-70
2022/01/03 08:24:54;;;;;;;5.67;1.77;;;;;;;10.73;70.89;97025.53;5105884;28;20624;-70
2022/01/03 08:27:21;;;;;;;5.33;1.70;;;;;;;10.78;69.75;97036.53;5105530;28;20212;-70
2022/01/03 08:29:48;;;;;;;2.80;1.20;;;;;;;10.82;69.53;97032.66;5105089;28;20232;-70
2022/01/03 08:32:14;;;;;;;2.77;1.40;;;;;;;10.90;69.56;97027.53;5103676;28;20233;-69
2022/01/03 08:34:42;;;;;;;2.43;1.10;;;;;;;10.97;68.86;97028.66;5096150;28;20197;-71
2022/01/03 08:37:08;;;;;;;4.13;1.53;;;;;;;11.02;68.43;97040.66;5105837;28;20243;-71
2022/01/03 08:39:35;;;;;;;2.97;1.77;;;;;;;11.03;68.63;97047.59;5103337;28;20561;-69
2022/01/03 08:42:01;;;;;;;2.47;1.50;;;;;;;11.10;67.73;97049.56;5105346;28;20205;-69
2022/01/03 08:44:28;;;;;;;3.07;1.40;;;;;;;11.11;67.25;97047.75;5105941;28;20205;-70
2022/01/03 08:46:54;;;;;;;3.20;1.50;;;;;;;11.11;67.88;97047.75;5138331;28;20236;-71
2022/01/03 08:49:21;;;;;;;4.50;2.07;;;;;;;11.11;68.68;97037.19;5137714;28;20189;-71
2022/01/03 08:51:48;;;;;;;5.03;1.60;;;;;;;11.10;70.19;97054.03;5138389;28;20199;-69
2022/01/03 08:54:15;;;;;;;4.83;1.60;;;;;;;11.10;69.55;97043.44;5129986;28;20193;-69
2022/01/03 08:56:41;;;;;;;4.83;1.50;;;;;;;11.08;70.76;97053.34;5114109;28;20266;-69
2022/01/03 08:59:08;;;;;;;2.73;1.13;;;;;;;11.06;70.11;97057.91;5109777;28;20236;-69
2022/01/03 09:01:34;;;;;;;2.47;1.40;;;;;;;11.01;69.43;97049.56;5110713;28;20213;-68
2022/01/03 09:04:01;;;;;;;3.07;1.63;;;;;;;11.04;70.74;97050.13;5118926;28;20231;-71
2022/01/03 09:06:28;;;;;;;3.20;1.20;;;;;;;11.07;69.48;97064.88;5106110;28;20198;-70
2022/01/03 09:08:56;;;;;;;3.50;1.10;;;;;;;11.08;69.53;97069.22;5106024;28;20201;-70
2022/01/03 09:11:22;;;;;;;3.27;1.60;;;;;;;10.98;70.39;97064.72;5108895;28;20209;-70
2022/01/03 09:13:49;;;;;;;6.43;1.50;;;;;;;11.06;68.82;97055.25;5107158;28;20193;-70
2022/01/03 09:16:16;;;;;;;3.40;1.30;;;;;;;11.14;68.50;97060.72;5111678;28;20212;-70
2022/01/03 09:18:43;;;;;;;2.37;1.47;;;;;;;11.22;66.78;97063.53;5127017;28;20312;-71
2022/01/03 09:21:10;;;;;;;3.17;1.43;;;;;;;11.23;67.30;97071.31;5115893;28;20220;-70
2022/01/03 09:23:41;;;;;;;3.57;1.50;;;;;;;11.26;66.42;97070.22;5111440;28;20226;-70
2022/01/03 09:28:53;;;;;;;1.57;1.23;;;;;;;11.24;66.89;97086.25;5121707;28;20212;-69
2022/01/03 09:31:24;;;;;;;1.47;1.30;;;;;;;11.28;67.35;97073.56;5109123;28;20216;-70
2022/01/03 09:33:51;;;;;;;4.27;1.93;;;;;;;11.29;66.54;97075.25;5105402;28;20193;-70
2022/01/03 09:36:18;;;;;;;3.33;1.87;;;;;;;11.31;66.32;97065.34;5118585;28;20201;-72
2022/01/03 09:38:44;;;;;;;3.87;1.70;;;;;;;11.36;66.12;97071.06;5132610;28;20233;-69
2022/01/03 09:41:13;;;;;;;2.60;1.40;;;;;;;11.46;66.76;97072.75;5119601;28;20201;-70
2022/01/03 09:43:46;;;;;;;4.00;1.60;;;;;;;11.49;65.57;97066.34;5134762;28;20216;-70
2022/01/03 09:46:13;;;;;;;2.63;1.40;;;;;;;11.58;65.78;97049.63;5112691;28;20241;-70
2022/01/03 09:48:42;;;;;;;2.73;1.20;;;;;;;11.61;65.61;97040.56;5116075;28;20194;-69
2022/01/03 09:51:11;;;;;;;2.83;1.10;;;;;;;11.68;65.33;97037.22;5118410;28;20296;-71
2022/01/03 09:53:38;;;;;;;1.77;1.20;;;;;;;11.65;64.80;97050.75;5109638;28;20202;-69
2022/01/03 09:56:05;;;;;;;2.53;1.30;;;;;;;11.64;65.44;97058.81;5119343;28;20209;-72
2022/01/03 09:58:33;;;;;;;3.17;1.47;;;;;;;11.64;64.01;97054.38;5118922;28;20229;-68
2022/01/03 10:01:00;;;;;;;5.30;1.60;;;;;;;11.71;64.12;97068.75;5119409;28;20209;-69
2022/01/03 10:03:27;;;;;;;2.57;1.10;;;;;;;11.72;64.05;97061.66;5107633;28;20216;-72
2022/01/03 10:05:53;;;;;;;4.13;1.47;;;;;;;11.68;64.61;97061.06;5098575;28;20210;-69
2022/01/03 10:08:20;;;;;;;2.40;1.33;;;;;;;11.72;64.75;97062.50;5112242;28;20201;-72
2022/01/03 10:10:46;;;;;;;5.13;1.40;;;;;;;11.72;64.40;97056.34;5108566;28;20202;-72
2022/01/03 10:13:14;;;;;;;2.33;1.40;;;;;;;11.68;65.05;97050.47;5111788;28;20209;-71
2022/01/03 10:15:42;;;;;;;8.77;1.43;;;;;;;11.70;63.31;97055.59;5091531;28;20304;-72
2022/01/03 10:18:16;;;;;;;3.57;1.30;;;;;;;11.71;65.18;97050.22;5099757;28;20218;-72
2022/01/03 10:20:43;;;;;;;2.80;1.63;;;;;;;11.68;65.64;97044.34;5113494;28;20539;-72
2022/01/03 10:23:10;;;;;;;3.53;1.90;;;;;;;11.68;64.95;97039.88;5117008;28;20232;-72
2022/01/03 10:25:36;;;;;;;4.40;1.57;;;;;;;11.68;64.57;97039.88;5097634;28;20540;-74
2022/01/03 10:28:04;;;;;;;2.80;1.40;;;;;;;11.69;64.84;97043.38;5112433;28;20219;-69
2022/01/03 10:30:33;;;;;;;4.30;1.60;;;;;;;11.68;64.93;97050.47;5109974;28;20652;-70
2022/01/03 10:33:03;;;;;;;3.00;1.63;;;;;;;11.67;65.11;97038.19;5109615;28;20209;-70
2022/01/03 10:35:39;;;;;;;3.57;1.47;;;;;;;11.59;65.05;97022.16;5087378;28;20233;-72
2022/01/03 10:38:05;;;;;;;2.83;1.50;;;;;;;11.70;64.55;97016.72;5097334;28;20205;-74
2022/01/03 10:40:32;;;;;;;3.13;1.60;;;;;;;11.72;64.72;97003.38;5097746;28;20198;-72
2022/01/03 10:43:13;;;;;;;2.63;1.50;;;;;;;11.81;66.04;97010.47;5109232;28;20651;-73
2022/01/03 10:45:40;;;;;;;6.23;3.73;;;;;;;11.87;64.05;97012.53;5118542;28;20205;-73
2022/01/03 10:48:28;;;;;;;2.77;1.40;;;;;;;11.92;63.99;97021.75;5124697;28;20248;-73
2022/01/03 10:50:55;;;;;;;2.50;1.50;;;;;;;11.94;65.61;97017.13;5139669;28;20173;-74
2022/01/03 10:53:32;;;;;;;2.70;1.43;;;;;;;11.93;65.49;97010.19;5140465;28;20196;-71
2022/01/03 10:55:58;;;;;;;3.73;1.60;;;;;;;11.97;65.07;97003.59;5112997;28;20197;-71
2022/01/03 10:58:32;;;;;;;2.63;1.43;;;;;;;11.98;64.74;97004.41;5108274;28;20201;-72
2022/01/03 11:01:00;;;;;;;2.93;1.70;;;;;;;11.98;64.29;97002.63;5117051;28;20201;-72
2022/01/03 11:03:31;;;;;;;2.77;1.30;;;;;;;11.95;65.99;96999.41;5117589;28;20232;-72
2022/01/03 11:06:08;;;;;;;2.80;1.47;;;;;;;11.93;64.70;96996.91;5110539;28;20220;-72
2022/01/03 11:11:34;;;;;;;3.27;1.50;;;;;;;11.82;66.06;96961.78;5101131;28;20205;-74
2022/01/03 11:14:00;;;;;;;5.63;1.50;;;;;;;11.78;63.25;96958.59;5089885;28;20211;-74
2022/01/03 11:16:31;;;;;;;3.33;1.63;;;;;;;11.82;63.93;96957.34;5116523;28;20201;-73
2022/01/03 11:19:00;;;;;;;3.07;1.37;;;;;;;11.86;63.83;96957.88;5089161;28;20217;-70
2022/01/03 11:21:26;;;;;;;5.33;1.60;;;;;;;11.80;62.75;96946.03;5109968;28;20236;-69
2022/01/03 11:24:04;;;;;;;3.77;1.50;;;;;;;11.84;63.27;96928.03;5103116;28;20649;-73
2022/01/03 11:26:33;;;;;;;2.63;1.80;;;;;;;11.81;64.00;96907.94;5116332;28;20208;-74
2022/01/03 11:29:00;;;;;;;2.93;1.70;;;;;;;11.75;62.94;96905.06;5111076;28;20538;-74
2022/01/03 11:31:27;;;;;;;3.73;1.50;;;;;;;11.81;63.11;96901.81;5095682;28;20322;-72
2022/01/03 11:33:53;;;;;;;4.07;1.67;;;;;;;11.84;64.32;96897.06;5104994;28;20628;-72
2022/01/03 11:36:24;;;;;;;3.90;1.50;;;;;;;11.85;63.15;96898.75;5116683;28;20216;-72
2022/01/03 11:38:50;;;;;;;2.60;1.57;;;;;;;11.86;62.13;96913.66;5116053;28;20213;-73
2022/01/03 11:41:17;;;;;;;4.33;1.30;;;;;;;11.80;60.45;96910.75;5106489;28;20212;-76
2022/01/03 11:43:45;;;;;;;1.80;1.00;;;;;;;11.84;58.96;96906.81;5116342;28;20513;-69
2022/01/03 11:46:11;;;;;;;2.13;1.10;;;;;;;11.83;60.16;96908.63;5108831;28;20584;-69
2022/01/03 11:48:38;;;;;;;0.90;0.83;;;;;;;11.91;59.29;96913.22;5116873;28;20232;-69
2022/01/03 11:51:12;;;;;;;2.63;1.33;;;;;;;11.91;60.26;96910.56;5115988;28;20204;-68
2022/01/03 11:53:43;;;;;;;2.23;1.40;;;;;;;11.93;60.42;96912.13;5108907;28;20190;-68